sensor_id;sensor_type;location;lat;lon;timestamp;temperature;humidity
68943;DHT22;60852;52.190;4.422;2024-01-10T00:01:32;-0.73;59.11
68943;DHT22;60852;52.190;4.422;2024-01-10T00:03:58;-0.84;59.32
68943;DHT22;60852;52.190;4.422;2024-01-10T00:06:23;-0.83;59.51
68943;DHT22;60852;52.190;4.422;2024-01-10T00:08:49;-0.83;59.41
68943;DHT22;60852;52.190;4.422;2024-01-10T00:11:15;-0.80;59.54
68943;DHT22;60852;52.190;4.422;2024-01-10T00:13:40;-0.87;59.46
68943;DHT22;60852;52.190;4.422;2024-01-10T00:16:06;-0.87;59.30
68943;DHT22;60852;52.190;4.422;2024-01-10T00:18:31;-0.90;59.43
68943;DHT22;60852;52.190;4.422;2024-01-10T00:20:57;-0.93;59.37
68943;DHT22;60852;52.190;4.422;2024-01-10T00:23:23;-0.97;59.11
68943;DHT22;60852;52.190;4.422;2024-01-10T00:25:49;-0.99;59.22
68943;DHT22;60852;52.190;4.422;2024-01-10T00:28:15;-1.01;59.34
68943;DHT22;60852;52.190;4.422;2024-01-10T00:30:44;-1.00;59.46
68943;DHT22;60852;52.190;4.422;2024-01-10T00:33:10;-0.94;59.05
68943;DHT22;60852;52.190;4.422;2024-01-10T00:35:37;-0.97;59.25
68943;DHT22;60852;52.190;4.422;2024-01-10T00:38:03;-1.00;59.29
68943;DHT22;60852;52.190;4.422;2024-01-10T00:40:28;-1.03;59.27
68943;DHT22;60852;52.190;4.422;2024-01-10T00:42:54;-1.04;59.35
68943;DHT22;60852;52.190;4.422;2024-01-10T00:45:19;-1.03;59.25
68943;DHT22;60852;52.190;4.422;2024-01-10T00:47:48;-1.08;59.34
68943;DHT22;60852;52.190;4.422;2024-01-10T00:50:13;-1.07;59.51
68943;DHT22;60852;52.190;4.422;2024-01-10T00:52:39;-1.01;59.47
68943;DHT22;60852;52.190;4.422;2024-01-10T00:55:04;-0.99;59.27
68943;DHT22;60852;52.190;4.422;2024-01-10T00:57:30;-0.96;59.40
68943;DHT22;60852;52.190;4.422;2024-01-10T00:59:55;-0.94;59.24
68943;DHT22;60852;52.190;4.422;2024-01-10T01:02:21;-0.99;59.32
68943;DHT22;60852;52.190;4.422;2024-01-10T01:04:46;-0.96;59.45
68943;DHT22;60852;52.190;4.422;2024-01-10T01:07:12;-0.97;59.63
68943;DHT22;60852;52.190;4.422;2024-01-10T01:09:37;-1.05;59.97
68943;DHT22;60852;52.190;4.422;2024-01-10T01:12:03;-1.08;60.20
68943;DHT22;60852;52.190;4.422;2024-01-10T01:14:28;-1.07;60.24
68943;DHT22;60852;52.190;4.422;2024-01-10T01:16:54;-1.10;60.54
68943;DHT22;60852;52.190;4.422;2024-01-10T01:19:19;-1.11;60.77
68943;DHT22;60852;52.190;4.422;2024-01-10T01:21:45;-1.12;60.90
68943;DHT22;60852;52.190;4.422;2024-01-10T01:24:10;-1.15;61.59
68943;DHT22;60852;52.190;4.422;2024-01-10T01:26:37;-1.20;61.86
68943;DHT22;60852;52.190;4.422;2024-01-10T01:29:02;-1.25;62.30
68943;DHT22;60852;52.190;4.422;2024-01-10T01:31:27;-1.24;62.83
68943;DHT22;60852;52.190;4.422;2024-01-10T01:33:53;-1.30;63.69
68943;DHT22;60852;52.190;4.422;2024-01-10T01:36:18;-1.35;64.71
68943;DHT22;60852;52.190;4.422;2024-01-10T01:38:44;-1.41;65.49
68943;DHT22;60852;52.190;4.422;2024-01-10T01:41:09;-1.38;66.00
68943;DHT22;60852;52.190;4.422;2024-01-10T01:43:35;-1.38;66.44
68943;DHT22;60852;52.190;4.422;2024-01-10T01:46:02;-1.38;66.56
68943;DHT22;60852;52.190;4.422;2024-01-10T01:48:28;-1.40;66.79
68943;DHT22;60852;52.190;4.422;2024-01-10T01:50:57;-1.41;66.83
68943;DHT22;60852;52.190;4.422;2024-01-10T01:53:25;-1.44;67.03
68943;DHT22;60852;52.190;4.422;2024-01-10T01:55:52;-1.44;67.05
68943;DHT22;60852;52.190;4.422;2024-01-10T01:58:19;-1.44;67.11
68943;DHT22;60852;52.190;4.422;2024-01-10T02:00:46;-1.47;67.27
68943;DHT22;60852;52.190;4.422;2024-01-10T02:03:11;-1.49;67.29
68943;DHT22;60852;52.190;4.422;2024-01-10T02:05:37;-1.42;67.22
68943;DHT22;60852;52.190;4.422;2024-01-10T02:08:03;-1.42;67.16
68943;DHT22;60852;52.190;4.422;2024-01-10T02:10:28;-1.41;67.07
68943;DHT22;60852;52.190;4.422;2024-01-10T02:12:54;-1.45;66.94
68943;DHT22;60852;52.190;4.422;2024-01-10T02:15:20;-1.44;67.06
68943;DHT22;60852;52.190;4.422;2024-01-10T02:17:45;-1.47;67.04
68943;DHT22;60852;52.190;4.422;2024-01-10T02:20:12;-1.48;67.21
68943;DHT22;60852;52.190;4.422;2024-01-10T02:22:38;-1.49;67.29
68943;DHT22;60852;52.190;4.422;2024-01-10T02:25:08;-1.42;67.20
68943;DHT22;60852;52.190;4.422;2024-01-10T02:27:35;-1.55;67.19
68943;DHT22;60852;52.190;4.422;2024-01-10T02:30:03;-1.58;67.38
68943;DHT22;60852;52.190;4.422;2024-01-10T02:32:29;-1.58;67.44
68943;DHT22;60852;52.190;4.422;2024-01-10T02:34:54;-1.62;67.49
68943;DHT22;60852;52.190;4.422;2024-01-10T02:37:20;-1.59;67.26
68943;DHT22;60852;52.190;4.422;2024-01-10T02:39:46;-1.55;67.06
68943;DHT22;60852;52.190;4.422;2024-01-10T02:42:11;-1.54;66.72
68943;DHT22;60852;52.190;4.422;2024-01-10T02:44:37;-1.55;66.55
68943;DHT22;60852;52.190;4.422;2024-01-10T02:47:03;-1.61;66.72
68943;DHT22;60852;52.190;4.422;2024-01-10T02:49:28;-1.66;66.87
68943;DHT22;60852;52.190;4.422;2024-01-10T02:51:54;-1.68;67.16
68943;DHT22;60852;52.190;4.422;2024-01-10T02:54:19;-1.66;66.98
68943;DHT22;60852;52.190;4.422;2024-01-10T02:56:45;-1.69;66.95
68943;DHT22;60852;52.190;4.422;2024-01-10T02:59:10;-1.68;66.93
68943;DHT22;60852;52.190;4.422;2024-01-10T03:01:36;-1.66;67.12
68943;DHT22;60852;52.190;4.422;2024-01-10T03:04:01;-1.66;67.06
68943;DHT22;60852;52.190;4.422;2024-01-10T03:06:26;-1.66;67.08
68943;DHT22;60852;52.190;4.422;2024-01-10T03:08:52;-1.69;67.28
68943;DHT22;60852;52.190;4.422;2024-01-10T03:11:17;-1.75;67.36
68943;DHT22;60852;52.190;4.422;2024-01-10T03:13:46;-1.76;67.65
68943;DHT22;60852;52.190;4.422;2024-01-10T03:16:12;-1.76;67.62
68943;DHT22;60852;52.190;4.422;2024-01-10T03:18:37;-1.82;67.80
68943;DHT22;60852;52.190;4.422;2024-01-10T03:21:03;-1.82;67.86
68943;DHT22;60852;52.190;4.422;2024-01-10T03:23:28;-1.79;67.83
68943;DHT22;60852;52.190;4.422;2024-01-10T03:25:53;-1.78;67.66
68943;DHT22;60852;52.190;4.422;2024-01-10T03:28:19;-1.76;67.84
68943;DHT22;60852;52.190;4.422;2024-01-10T03:30:45;-1.69;67.73
68943;DHT22;60852;52.190;4.422;2024-01-10T03:33:10;-1.66;67.48
68943;DHT22;60852;52.190;4.422;2024-01-10T03:35:36;-1.62;67.13
68943;DHT22;60852;52.190;4.422;2024-01-10T03:38:02;-1.59;67.17
68943;DHT22;60852;52.190;4.422;2024-01-10T03:40:27;-1.61;66.94
68943;DHT22;60852;52.190;4.422;2024-01-10T03:42:53;-1.61;66.65
68943;DHT22;60852;52.190;4.422;2024-01-10T03:45:18;-1.69;66.50
68943;DHT22;60852;52.190;4.422;2024-01-10T03:47:46;-1.68;66.42
68943;DHT22;60852;52.190;4.422;2024-01-10T03:50:19;-1.72;66.12
68943;DHT22;60852;52.190;4.422;2024-01-10T03:52:45;-1.69;65.96
68943;DHT22;60852;52.190;4.422;2024-01-10T03:55:14;-1.69;65.75
68943;DHT22;60852;52.190;4.422;2024-01-10T03:57:41;-1.72;65.49
68943;DHT22;60852;52.190;4.422;2024-01-10T04:00:07;-1.72;65.30
68943;DHT22;60852;52.190;4.422;2024-01-10T04:02:33;-1.76;65.24
68943;DHT22;60852;52.190;4.422;2024-01-10T04:04:59;-1.75;65.07
68943;DHT22;60852;52.190;4.422;2024-01-10T04:07:26;-1.75;65.00
68943;DHT22;60852;52.190;4.422;2024-01-10T04:09:52;-1.72;64.94
68943;DHT22;60852;52.190;4.422;2024-01-10T04:12:17;-1.68;64.97
68943;DHT22;60852;52.190;4.422;2024-01-10T04:14:43;-1.65;64.43
68943;DHT22;60852;52.190;4.422;2024-01-10T04:17:08;-1.70;64.19
68943;DHT22;60852;52.190;4.422;2024-01-10T04:19:34;-1.72;64.31
68943;DHT22;60852;52.190;4.422;2024-01-10T04:22:00;-1.79;64.29
68943;DHT22;60852;52.190;4.422;2024-01-10T04:24:25;-1.80;64.46
68943;DHT22;60852;52.190;4.422;2024-01-10T04:26:51;-1.82;64.20
68943;DHT22;60852;52.190;4.422;2024-01-10T04:29:16;-1.79;64.15
68943;DHT22;60852;52.190;4.422;2024-01-10T04:31:42;-1.86;64.03
68943;DHT22;60852;52.190;4.422;2024-01-10T04:34:07;-1.85;64.00
68943;DHT22;60852;52.190;4.422;2024-01-10T04:36:33;-1.82;63.74
68943;DHT22;60852;52.190;4.422;2024-01-10T04:38:59;-1.82;63.49
68943;DHT22;60852;52.190;4.422;2024-01-10T04:41:25;-1.87;63.46
68943;DHT22;60852;52.190;4.422;2024-01-10T04:43:51;-1.86;63.26
68943;DHT22;60852;52.190;4.422;2024-01-10T04:46:16;-1.90;63.18
68943;DHT22;60852;52.190;4.422;2024-01-10T04:48:42;-1.90;63.22
68943;DHT22;60852;52.190;4.422;2024-01-10T04:51:07;-1.99;63.44
68943;DHT22;60852;52.190;4.422;2024-01-10T04:53:33;-1.94;63.39
68943;DHT22;60852;52.190;4.422;2024-01-10T04:55:59;-1.94;63.11
68943;DHT22;60852;52.190;4.422;2024-01-10T04:58:24;-1.96;62.73
68943;DHT22;60852;52.190;4.422;2024-01-10T05:00:49;-1.90;62.60
68943;DHT22;60852;52.190;4.422;2024-01-10T05:03:15;-1.90;62.56
68943;DHT22;60852;52.190;4.422;2024-01-10T05:05:41;-1.94;62.54
68943;DHT22;60852;52.190;4.422;2024-01-10T05:08:06;-1.96;62.04
68943;DHT22;60852;52.190;4.422;2024-01-10T05:10:32;-1.96;61.95
68943;DHT22;60852;52.190;4.422;2024-01-10T05:12:57;-1.90;61.72
68943;DHT22;60852;52.190;4.422;2024-01-10T05:15:23;-1.90;61.58
68943;DHT22;60852;52.190;4.422;2024-01-10T05:17:48;-1.89;61.44
68943;DHT22;60852;52.190;4.422;2024-01-10T05:20:14;-1.86;61.40
68943;DHT22;60852;52.190;4.422;2024-01-10T05:22:40;-1.85;61.49
68943;DHT22;60852;52.190;4.422;2024-01-10T05:25:06;-1.80;61.44
68943;DHT22;60852;52.190;4.422;2024-01-10T05:27:32;-1.75;61.41
68943;DHT22;60852;52.190;4.422;2024-01-10T05:29:57;-1.72;61.64
68943;DHT22;60852;52.190;4.422;2024-01-10T05:32:25;-1.70;61.87
68943;DHT22;60852;52.190;4.422;2024-01-10T05:34:52;-1.70;61.71
68943;DHT22;60852;52.190;4.422;2024-01-10T05:37:17;-1.69;61.95
68943;DHT22;60852;52.190;4.422;2024-01-10T05:39:43;-1.72;62.04
68943;DHT22;60852;52.190;4.422;2024-01-10T05:42:08;-1.66;62.18
68943;DHT22;60852;52.190;4.422;2024-01-10T05:44:33;-1.65;61.99
68943;DHT22;60852;52.190;4.422;2024-01-10T05:46:59;-1.66;61.97
68943;DHT22;60852;52.190;4.422;2024-01-10T05:49:25;-1.55;62.05
68943;DHT22;60852;52.190;4.422;2024-01-10T05:51:51;-1.54;61.84
68943;DHT22;60852;52.190;4.422;2024-01-10T05:54:16;-1.47;61.95
68943;DHT22;60852;52.190;4.422;2024-01-10T05:56:43;-1.51;61.30
68943;DHT22;60852;52.190;4.422;2024-01-10T05:59:09;-1.61;61.39
68943;DHT22;60852;52.190;4.422;2024-01-10T06:01:37;-1.69;61.61
68943;DHT22;60852;52.190;4.422;2024-01-10T06:04:04;-1.66;61.74
68943;DHT22;60852;52.190;4.422;2024-01-10T06:06:31;-1.62;61.59
68943;DHT22;60852;52.190;4.422;2024-01-10T06:08:57;-1.70;61.81
68943;DHT22;60852;52.190;4.422;2024-01-10T06:11:23;-1.76;61.83
68943;DHT22;60852;52.190;4.422;2024-01-10T06:13:48;-1.79;62.18
68943;DHT22;60852;52.190;4.422;2024-01-10T06:16:14;-1.78;62.10
68943;DHT22;60852;52.190;4.422;2024-01-10T06:18:39;-1.82;62.45
68943;DHT22;60852;52.190;4.422;2024-01-10T06:21:05;-1.80;62.43
68943;DHT22;60852;52.190;4.422;2024-01-10T06:23:30;-1.79;62.56
68943;DHT22;60852;52.190;4.422;2024-01-10T06:25:56;-1.78;62.42
68943;DHT22;60852;52.190;4.422;2024-01-10T06:28:21;-1.82;62.48
68943;DHT22;60852;52.190;4.422;2024-01-10T06:30:48;-1.78;62.30
68943;DHT22;60852;52.190;4.422;2024-01-10T06:33:14;-1.73;62.09
68943;DHT22;60852;52.190;4.422;2024-01-10T06:35:40;-1.79;62.23
68943;DHT22;60852;52.190;4.422;2024-01-10T06:38:09;-1.79;62.30
68943;DHT22;60852;52.190;4.422;2024-01-10T06:40:34;-1.72;62.01
68943;DHT22;60852;52.190;4.422;2024-01-10T06:43:00;-1.70;61.67
68943;DHT22;60852;52.190;4.422;2024-01-10T06:45:26;-1.70;61.18
68943;DHT22;60852;52.190;4.422;2024-01-10T06:47:52;-1.70;61.09
68943;DHT22;60852;52.190;4.422;2024-01-10T06:50:17;-1.72;60.79
68943;DHT22;60852;52.190;4.422;2024-01-10T06:52:45;-1.70;60.51
68943;DHT22;60852;52.190;4.422;2024-01-10T06:55:13;-1.69;60.34
68943;DHT22;60852;52.190;4.422;2024-01-10T06:57:39;-1.61;60.07
68943;DHT22;60852;52.190;4.422;2024-01-10T07:00:05;-1.63;59.52
68943;DHT22;60852;52.190;4.422;2024-01-10T07:02:37;-1.59;58.85
68943;DHT22;60852;52.190;4.422;2024-01-10T07:05:03;-1.62;58.59
68943;DHT22;60852;52.190;4.422;2024-01-10T07:07:32;-1.65;58.63
68943;DHT22;60852;52.190;4.422;2024-01-10T07:09:57;-1.66;58.07
68943;DHT22;60852;52.190;4.422;2024-01-10T07:12:22;-1.66;58.20
68943;DHT22;60852;52.190;4.422;2024-01-10T07:14:48;-1.66;58.19
68943;DHT22;60852;52.190;4.422;2024-01-10T07:17:13;-1.66;58.06
68943;DHT22;60852;52.190;4.422;2024-01-10T07:19:39;-1.62;57.78
68943;DHT22;60852;52.190;4.422;2024-01-10T07:22:05;-1.62;57.79
68943;DHT22;60852;52.190;4.422;2024-01-10T07:24:31;-1.65;57.74
68943;DHT22;60852;52.190;4.422;2024-01-10T07:26:56;-1.66;57.58
68943;DHT22;60852;52.190;4.422;2024-01-10T07:29:22;-1.61;57.18
68943;DHT22;60852;52.190;4.422;2024-01-10T07:31:47;-1.65;57.20
68943;DHT22;60852;52.190;4.422;2024-01-10T07:34:13;-1.56;57.06
68943;DHT22;60852;52.190;4.422;2024-01-10T07:36:42;-1.58;56.21
68943;DHT22;60852;52.190;4.422;2024-01-10T07:39:08;-1.61;55.85
68943;DHT22;60852;52.190;4.422;2024-01-10T07:41:33;-1.66;55.93
68943;DHT22;60852;52.190;4.422;2024-01-10T07:43:59;-1.61;55.58
68943;DHT22;60852;52.190;4.422;2024-01-10T07:46:24;-1.63;55.36
68943;DHT22;60852;52.190;4.422;2024-01-10T07:48:52;-1.54;54.96
68943;DHT22;60852;52.190;4.422;2024-01-10T07:51:17;-1.44;54.39
68943;DHT22;60852;52.190;4.422;2024-01-10T07:53:43;-1.40;53.73
68943;DHT22;60852;52.190;4.422;2024-01-10T07:56:08;-1.37;53.79
68943;DHT22;60852;52.190;4.422;2024-01-10T07:58:34;-1.44;53.24
68943;DHT22;60852;52.190;4.422;2024-01-10T08:00:59;-1.40;53.51
68943;DHT22;60852;52.190;4.422;2024-01-10T08:03:25;-1.31;53.84
68943;DHT22;60852;52.190;4.422;2024-01-10T08:05:50;-1.25;53.33
68943;DHT22;60852;52.190;4.422;2024-01-10T08:08:15;-1.22;53.28
68943;DHT22;60852;52.190;4.422;2024-01-10T08:10:42;-1.35;53.39
68943;DHT22;60852;52.190;4.422;2024-01-10T08:13:07;-1.37;53.49
68943;DHT22;60852;52.190;4.422;2024-01-10T08:15:33;-1.34;53.55
68943;DHT22;60852;52.190;4.422;2024-01-10T08:18:00;-1.31;53.81
68943;DHT22;60852;52.190;4.422;2024-01-10T08:20:28;-1.30;53.63
68943;DHT22;60852;52.190;4.422;2024-01-10T08:22:53;-1.31;53.31
68943;DHT22;60852;52.190;4.422;2024-01-10T08:25:19;-1.30;53.22
68943;DHT22;60852;52.190;4.422;2024-01-10T08:27:44;-1.34;53.62
68943;DHT22;60852;52.190;4.422;2024-01-10T08:30:11;-1.32;54.00
68943;DHT22;60852;52.190;4.422;2024-01-10T08:32:36;-1.30;53.36
68943;DHT22;60852;52.190;4.422;2024-01-10T08:35:05;-1.25;53.57
68943;DHT22;60852;52.190;4.422;2024-01-10T08:37:30;-1.24;53.02
68943;DHT22;60852;52.190;4.422;2024-01-10T08:39:57;-1.31;52.84
68943;DHT22;60852;52.190;4.422;2024-01-10T08:42:22;-1.42;52.77
68943;DHT22;60852;52.190;4.422;2024-01-10T08:44:47;-1.42;53.20
68943;DHT22;60852;52.190;4.422;2024-01-10T08:47:13;-1.35;52.99
68943;DHT22;60852;52.190;4.422;2024-01-10T08:49:39;-1.21;52.94
68943;DHT22;60852;52.190;4.422;2024-01-10T08:52:05;-1.27;52.87
68943;DHT22;60852;52.190;4.422;2024-01-10T08:54:30;-1.22;52.94
68943;DHT22;60852;52.190;4.422;2024-01-10T08:56:56;-1.20;52.96
68943;DHT22;60852;52.190;4.422;2024-01-10T08:59:22;-1.14;52.85
68943;DHT22;60852;52.190;4.422;2024-01-10T09:01:47;-1.10;53.15
68943;DHT22;60852;52.190;4.422;2024-01-10T09:04:12;-1.05;52.99
68943;DHT22;60852;52.190;4.422;2024-01-10T09:06:38;-0.93;52.37
68943;DHT22;60852;52.190;4.422;2024-01-10T09:09:03;-0.86;52.01
68943;DHT22;60852;52.190;4.422;2024-01-10T09:11:29;-0.86;52.22
68943;DHT22;60852;52.190;4.422;2024-01-10T09:13:54;-0.80;52.07
68943;DHT22;60852;52.190;4.422;2024-01-10T09:16:20;-0.80;51.30
68943;DHT22;60852;52.190;4.422;2024-01-10T09:18:45;-0.79;51.01
68943;DHT22;60852;52.190;4.422;2024-01-10T09:21:11;-0.79;50.93
68943;DHT22;60852;52.190;4.422;2024-01-10T09:23:37;-0.73;51.11
68943;DHT22;60852;52.190;4.422;2024-01-10T09:26:03;-0.74;50.76
68943;DHT22;60852;52.190;4.422;2024-01-10T09:28:29;-0.72;49.98
68943;DHT22;60852;52.190;4.422;2024-01-10T09:30:54;-0.70;50.47
68943;DHT22;60852;52.190;4.422;2024-01-10T09:33:20;-0.60;49.80
68943;DHT22;60852;52.190;4.422;2024-01-10T09:35:47;-0.58;49.69
68943;DHT22;60852;52.190;4.422;2024-01-10T09:38:13;-0.55;49.86
68943;DHT22;60852;52.190;4.422;2024-01-10T09:40:38;-0.51;49.57
68943;DHT22;60852;52.190;4.422;2024-01-10T09:43:05;-0.42;49.92
68943;DHT22;60852;52.190;4.422;2024-01-10T09:45:35;-0.45;48.57
68943;DHT22;60852;52.190;4.422;2024-01-10T09:48:01;-0.41;48.44
68943;DHT22;60852;52.190;4.422;2024-01-10T09:50:27;-0.39;48.18
68943;DHT22;60852;52.190;4.422;2024-01-10T09:53:05;-0.35;48.23
68943;DHT22;60852;52.190;4.422;2024-01-10T09:55:36;-0.31;47.53
68943;DHT22;60852;52.190;4.422;2024-01-10T09:58:08;-0.28;47.55
68943;DHT22;60852;52.190;4.422;2024-01-10T10:00:38;-0.19;48.05
68943;DHT22;60852;52.190;4.422;2024-01-10T10:03:07;-0.11;47.55
68943;DHT22;60852;52.190;4.422;2024-01-10T10:05:34;-0.10;47.86
68943;DHT22;60852;52.190;4.422;2024-01-10T10:08:00;-0.18;47.65
68943;DHT22;60852;52.190;4.422;2024-01-10T10:10:25;-0.12;48.04
68943;DHT22;60852;52.190;4.422;2024-01-10T10:12:53;-0.02;46.93
68943;DHT22;60852;52.190;4.422;2024-01-10T10:15:20;-0.04;46.97
68943;DHT22;60852;52.190;4.422;2024-01-10T10:17:52;0.02;46.95
68943;DHT22;60852;52.190;4.422;2024-01-10T10:20:26;0.06;47.21
68943;DHT22;60852;52.190;4.422;2024-01-10T10:22:58;0.07;47.39
68943;DHT22;60852;52.190;4.422;2024-01-10T10:25:29;0.17;47.78
68943;DHT22;60852;52.190;4.422;2024-01-10T10:27:55;0.21;46.42
68943;DHT22;60852;52.190;4.422;2024-01-10T10:30:21;0.19;46.76
68943;DHT22;60852;52.190;4.422;2024-01-10T10:32:47;0.23;46.26
68943;DHT22;60852;52.190;4.422;2024-01-10T10:35:13;0.21;46.50
68943;DHT22;60852;52.190;4.422;2024-01-10T10:37:38;0.29;46.30
68943;DHT22;60852;52.190;4.422;2024-01-10T10:40:05;0.30;46.00
68943;DHT22;60852;52.190;4.422;2024-01-10T10:42:31;0.38;45.54
68943;DHT22;60852;52.190;4.422;2024-01-10T10:45:03;0.33;45.40
68943;DHT22;60852;52.190;4.422;2024-01-10T10:47:36;0.51;46.29
68943;DHT22;60852;52.190;4.422;2024-01-10T10:50:04;0.79;45.15
68943;DHT22;60852;52.190;4.422;2024-01-10T10:52:30;0.99;44.67
68943;DHT22;60852;52.190;4.422;2024-01-10T10:54:58;1.02;44.47
68943;DHT22;60852;52.190;4.422;2024-01-10T10:57:27;0.93;44.82
68943;DHT22;60852;52.190;4.422;2024-01-10T10:59:53;0.84;44.67
68943;DHT22;60852;52.190;4.422;2024-01-10T11:02:21;0.93;44.27
68943;DHT22;60852;52.190;4.422;2024-01-10T11:04:49;0.75;44.19
68943;DHT22;60852;52.190;4.422;2024-01-10T11:07:15;0.75;44.41
68943;DHT22;60852;52.190;4.422;2024-01-10T11:09:44;0.85;44.37
68943;DHT22;60852;52.190;4.422;2024-01-10T11:12:29;0.85;44.43
68943;DHT22;60852;52.190;4.422;2024-01-10T11:17:57;0.75;44.30
68943;DHT22;60852;52.190;4.422;2024-01-10T11:26:07;0.88;45.59
68943;DHT22;60852;52.190;4.422;2024-01-10T11:28:32;0.87;45.62
68943;DHT22;60852;52.190;4.422;2024-01-10T11:30:59;0.99;45.15
68943;DHT22;60852;52.190;4.422;2024-01-10T11:33:31;0.89;44.22
68943;DHT22;60852;52.190;4.422;2024-01-10T11:36:18;0.88;44.67
68943;DHT22;60852;52.190;4.422;2024-01-10T11:41:31;0.87;45.95
68943;DHT22;60852;52.190;4.422;2024-01-10T11:46:39;1.00;46.54
68943;DHT22;60852;52.190;4.422;2024-01-10T11:49:12;1.13;46.13
68943;DHT22;60852;52.190;4.422;2024-01-10T11:51:50;1.13;45.11
68943;DHT22;60852;52.190;4.422;2024-01-10T11:54:43;1.16;45.28
68943;DHT22;60852;52.190;4.422;2024-01-10T11:59:44;1.15;45.23
68943;DHT22;60852;52.190;4.422;2024-01-10T12:02:11;1.16;45.75
68943;DHT22;60852;52.190;4.422;2024-01-10T12:04:38;1.15;45.86
68943;DHT22;60852;52.190;4.422;2024-01-10T12:07:05;1.19;46.18
68943;DHT22;60852;52.190;4.422;2024-01-10T12:09:32;1.28;46.19
68943;DHT22;60852;52.190;4.422;2024-01-10T12:11:58;1.32;46.32
68943;DHT22;60852;52.190;4.422;2024-01-10T12:14:24;1.36;46.97
68943;DHT22;60852;52.190;4.422;2024-01-10T12:16:53;1.36;45.44
68943;DHT22;60852;52.190;4.422;2024-01-10T12:19:19;1.32;45.47
68943;DHT22;60852;52.190;4.422;2024-01-10T12:21:44;1.42;46.43
68943;DHT22;60852;52.190;4.422;2024-01-10T12:24:09;1.51;45.06
68943;DHT22;60852;52.190;4.422;2024-01-10T12:26:35;1.43;45.39
68943;DHT22;60852;52.190;4.422;2024-01-10T12:29:01;1.42;44.94
68943;DHT22;60852;52.190;4.422;2024-01-10T12:31:30;1.35;45.23
68943;DHT22;60852;52.190;4.422;2024-01-10T12:33:56;1.35;45.18
68943;DHT22;60852;52.190;4.422;2024-01-10T12:36:22;1.46;45.81
68943;DHT22;60852;52.190;4.422;2024-01-10T12:38:47;1.57;45.89
68943;DHT22;60852;52.190;4.422;2024-01-10T12:41:18;1.68;45.67
68943;DHT22;60852;52.190;4.422;2024-01-10T12:43:58;1.60;45.64
68943;DHT22;60852;52.190;4.422;2024-01-10T12:46:25;1.68;45.46
68943;DHT22;60852;52.190;4.422;2024-01-10T12:49:01;1.73;45.85
68943;DHT22;60852;52.190;4.422;2024-01-10T12:51:29;1.78;45.21
68943;DHT22;60852;52.190;4.422;2024-01-10T12:53:55;1.79;44.90
68943;DHT22;60852;52.190;4.422;2024-01-10T12:56:22;1.70;45.08
68943;DHT22;60852;52.190;4.422;2024-01-10T12:58:47;1.63;45.55
68943;DHT22;60852;52.190;4.422;2024-01-10T13:01:13;1.60;45.46
68943;DHT22;60852;52.190;4.422;2024-01-10T13:03:39;1.64;44.74
68943;DHT22;60852;52.190;4.422;2024-01-10T13:06:05;1.60;44.83
68943;DHT22;60852;52.190;4.422;2024-01-10T13:08:31;1.63;45.10
68943;DHT22;60852;52.190;4.422;2024-01-10T13:10:58;1.73;45.56
68943;DHT22;60852;52.190;4.422;2024-01-10T13:13:25;1.63;46.15
68943;DHT22;60852;52.190;4.422;2024-01-10T13:15:50;1.51;46.43
68943;DHT22;60852;52.190;4.422;2024-01-10T13:18:17;1.56;46.53
68943;DHT22;60852;52.190;4.422;2024-01-10T13:20:44;1.56;46.15
68943;DHT22;60852;52.190;4.422;2024-01-10T13:23:10;1.75;46.46
68943;DHT22;60852;52.190;4.422;2024-01-10T13:25:36;1.94;46.24
68943;DHT22;60852;52.190;4.422;2024-01-10T13:28:05;1.95;45.32
68943;DHT22;60852;52.190;4.422;2024-01-10T13:30:30;1.88;46.23
68943;DHT22;60852;52.190;4.422;2024-01-10T13:32:56;1.94;46.96
68943;DHT22;60852;52.190;4.422;2024-01-10T13:35:23;2.02;45.75
68943;DHT22;60852;52.190;4.422;2024-01-10T13:37:49;2.01;45.89
68943;DHT22;60852;52.190;4.422;2024-01-10T13:40:15;1.99;46.04
68943;DHT22;60852;52.190;4.422;2024-01-10T13:42:42;1.89;45.54
68943;DHT22;60852;52.190;4.422;2024-01-10T13:45:09;1.73;46.41
68943;DHT22;60852;52.190;4.422;2024-01-10T13:47:39;1.77;46.96
68943;DHT22;60852;52.190;4.422;2024-01-10T13:50:05;1.81;47.38
68943;DHT22;60852;52.190;4.422;2024-01-10T13:52:32;1.77;46.48
68943;DHT22;60852;52.190;4.422;2024-01-10T13:54:58;1.81;46.90
68943;DHT22;60852;52.190;4.422;2024-01-10T13:57:23;1.84;46.78
68943;DHT22;60852;52.190;4.422;2024-01-10T13:59:49;1.85;47.16
68943;DHT22;60852;52.190;4.422;2024-01-10T14:02:15;1.82;46.76
68943;DHT22;60852;52.190;4.422;2024-01-10T14:04:41;1.64;46.99
68943;DHT22;60852;52.190;4.422;2024-01-10T14:07:07;1.56;47.80
68943;DHT22;60852;52.190;4.422;2024-01-10T14:09:32;1.54;47.82
68943;DHT22;60852;52.190;4.422;2024-01-10T14:11:58;1.50;47.89
68943;DHT22;60852;52.190;4.422;2024-01-10T14:14:23;1.50;48.13
68943;DHT22;60852;52.190;4.422;2024-01-10T14:16:49;1.53;47.72
68943;DHT22;60852;52.190;4.422;2024-01-10T14:19:15;1.49;47.92
68943;DHT22;60852;52.190;4.422;2024-01-10T14:21:43;1.53;48.41
68943;DHT22;60852;52.190;4.422;2024-01-10T14:24:08;1.63;48.83
68943;DHT22;60852;52.190;4.422;2024-01-10T14:26:34;1.68;48.55
68943;DHT22;60852;52.190;4.422;2024-01-10T14:29:01;1.53;48.56
68943;DHT22;60852;52.190;4.422;2024-01-10T14:31:26;1.50;49.08
68943;DHT22;60852;52.190;4.422;2024-01-10T14:33:52;1.58;48.88
68943;DHT22;60852;52.190;4.422;2024-01-10T14:36:18;1.58;49.04
68943;DHT22;60852;52.190;4.422;2024-01-10T14:38:44;1.51;48.84
68943;DHT22;60852;52.190;4.422;2024-01-10T14:41:10;1.63;48.20
68943;DHT22;60852;52.190;4.422;2024-01-10T14:43:36;1.61;47.60
68943;DHT22;60852;52.190;4.422;2024-01-10T14:46:03;1.68;47.43
68943;DHT22;60852;52.190;4.422;2024-01-10T14:48:31;1.66;47.95
68943;DHT22;60852;52.190;4.422;2024-01-10T14:50:56;1.63;48.09
68943;DHT22;60852;52.190;4.422;2024-01-10T14:53:21;1.67;48.78
68943;DHT22;60852;52.190;4.422;2024-01-10T14:55:47;1.73;48.75
68943;DHT22;60852;52.190;4.422;2024-01-10T14:58:12;1.70;48.29
68943;DHT22;60852;52.190;4.422;2024-01-10T15:00:39;1.60;48.83
68943;DHT22;60852;52.190;4.422;2024-01-10T15:03:06;1.61;48.68
68943;DHT22;60852;52.190;4.422;2024-01-10T15:05:33;1.51;49.56
68943;DHT22;60852;52.190;4.422;2024-01-10T15:08:00;1.51;49.60
68943;DHT22;60852;52.190;4.422;2024-01-10T15:10:26;1.49;50.33
68943;DHT22;60852;52.190;4.422;2024-01-10T15:12:52;1.46;50.19
68943;DHT22;60852;52.190;4.422;2024-01-10T15:15:18;1.42;50.72
68943;DHT22;60852;52.190;4.422;2024-01-10T15:17:43;1.50;51.16
68943;DHT22;60852;52.190;4.422;2024-01-10T15:20:09;1.56;51.15
68943;DHT22;60852;52.190;4.422;2024-01-10T15:22:35;1.49;51.29
68943;DHT22;60852;52.190;4.422;2024-01-10T15:25:03;1.40;51.59
68943;DHT22;60852;52.190;4.422;2024-01-10T15:27:29;1.40;51.97
68943;DHT22;60852;52.190;4.422;2024-01-10T15:29:54;1.36;51.96
68943;DHT22;60852;52.190;4.422;2024-01-10T15:32:20;1.35;53.04
68943;DHT22;60852;52.190;4.422;2024-01-10T15:34:45;1.36;52.77
68943;DHT22;60852;52.190;4.422;2024-01-10T15:37:11;1.35;52.54
68943;DHT22;60852;52.190;4.422;2024-01-10T15:39:36;1.32;52.82
68943;DHT22;60852;52.190;4.422;2024-01-10T15:42:04;1.26;52.93
68943;DHT22;60852;52.190;4.422;2024-01-10T15:44:30;1.16;52.80
68943;DHT22;60852;52.190;4.422;2024-01-10T15:46:55;1.10;53.47